Smith Valley, Nevada Weather observations

Data are for 10 minute period ending at time listed.
 Day   Time   Solar   Ave.   Ave.  Ave.  Vector  Max.   Baro.   Total    
  of    of     Rad.   Air    Rel.  Wind   Wind   Wind  Press.  Precip.   
Year   Day            Temp.  Hum.  Speed  Dir.   Gust                    
2026   (PST)  Kw/m2    F      %     mph   deg.    mph    mb.     in.     
-------------------------------------------------------------------------
 122   18:40   0.01   62.5    38    1.9    53     3.1   849.9    0.00 
 122   18:50   0.01   60.4    43    0.7   165     2.9   849.9    0.00 
 122   19:00   0.00   60.2    40    3.1   286     5.9   849.8    0.00 
 122   19:10   0.00   59.0    44    4.0   293     5.3   849.9    0.00 
 122   19:20   0.00   58.3    47    3.1   280     4.6   850.0    0.00 
 122   19:30   0.00   57.6    47    3.8   275     4.7   850.1    0.00 
 122   19:40   0.00   58.1    46    3.9   279     5.3   850.1    0.00 
 122   19:50   0.00   57.8    47    1.3   227     2.9   850.4    0.00 
 122   20:00   0.00   57.5    47    0.5   301     1.4   850.5    0.00 
 122   20:10   0.00   56.8    53    2.8    59     4.3   850.7    0.00 
 122   20:20   0.00   55.4    58    2.4   139     3.3   850.8    0.00 
 122   20:30   0.00   54.9    63    2.1   204     3.6   850.9    0.00 
 122   20:40   0.00   54.2    62    2.0   186     3.7   850.9    0.00 
 122   20:50   0.00   54.3    60    2.2   203     3.6   851.0    0.00 
 122   21:00   0.00   54.2    59    1.7   137     3.0   851.2    0.00 
 122   21:10   0.00   54.5    62    1.2   170     2.1   851.3    0.00 
 122   21:20   0.00   53.5    67    2.8   173     4.3   851.3    0.00 
 122   21:30   0.00   53.5    70    4.8   111     9.9   851.5    0.00 
 122   21:40   0.00   53.2    68    5.4   100     7.8   851.6    0.00 
 122   21:50   0.00   53.8    67    3.9   144     9.6   851.6    0.00 
 122   22:00   0.00   54.0    67    1.2   135     5.0   851.7    0.00 
 122   22:10   0.00   53.9    65    4.3   234     6.1   851.6    0.00 
 122   22:20   0.00   53.4    66    1.6   170     3.9   851.6    0.00 
 122   22:30   0.00   53.7    63    2.0   248     3.5   851.5    0.00 
 122   22:40   0.00   54.5    57    3.3   285     5.2   851.4    0.00 
 122   22:50   0.00   55.1    54    4.2   280     5.8   851.3    0.00 
 122   23:00   0.00   55.3    53    3.8   328     4.9   851.4    0.00 
 122   23:10   0.00   54.7    55    2.6   312     4.1   851.5    0.00 
 122   23:20   0.00   54.5    54    2.2   327     3.5   851.5    0.00 
 122   23:30   0.00   54.3    54    2.2   267     2.9   851.5    0.00 
 122   23:40   0.00   52.9    56    2.6   270     3.4   851.4    0.00 
 122   23:50   0.00   50.3    64    1.1   145     3.9   851.5    0.00 
 123    0:00   0.00   50.1    67    1.8   109     4.0   851.5    0.00 
 123    0:10   0.00   49.3    69    1.7   188     2.9   851.5    0.00 
 123    0:20   0.00   47.4    73    2.6   180     3.4   851.4    0.00 
 123    0:30   0.00   47.6    75    2.7   161     4.1   851.4    0.00 
 123    0:40   0.00   47.9    75    3.0   170     4.8   851.3    0.00 
 123    0:50   0.00   48.5    74    4.4   176     5.7   851.2    0.00 
 123    1:00   0.00   49.1    73    3.1   160     4.5   851.1    0.00 
 123    1:10   0.00   48.4    76    2.2   153     3.8   850.9    0.00 
 123    1:20   0.00   48.0    77    3.6   107     5.8   850.8    0.00 
 123    1:30   0.00   47.7    76    3.9   102     5.3   850.8    0.00 
 123    1:40   0.00   47.4    78    4.1   106     5.6   850.8    0.00 
 123    1:50   0.00   47.2    80    3.9    93     5.5   850.8    0.00 
 123    2:00   0.00   47.3    80    2.7    77     5.0   850.8    0.00 
 123    2:10   0.00   46.5    82    2.8    85     4.3   850.8    0.00 
 123    2:20   0.00   46.1    81    2.1   197     3.9   850.7    0.00 
 123    2:30   0.00   44.8    81    1.5   219     3.2   850.9    0.00 
 123    2:40   0.00   44.9    82    1.6    54     2.2   850.9    0.00 
 123    2:50   0.00   43.9    85    1.4   125     2.3   850.9    0.00 
 123    3:00   0.00   43.7    84    1.8   238     3.8   850.9    0.00 
 123    3:10   0.00   42.4    82    2.8   247     4.0   850.9    0.00 
 123    3:20   0.00   41.9    84    0.4   246     1.5   850.8    0.00 
 123    3:30   0.00   42.1    86    1.7    72     5.9   850.7    0.00 
 123    3:40   0.00   42.8    86    3.0    82     5.7   850.7    0.00 
 123    3:50   0.00   41.4    86    2.7    57     3.5   850.7    0.00 
 123    4:00   0.00   40.6    89    0.9    56     3.1   850.7    0.00 
 123    4:10   0.00   40.7    88    2.0   233     2.8   850.7    0.00 
 123    4:20   0.00   39.8    86    1.9   246     3.8   850.7    0.00 
 123    4:30   0.00   39.7    86    0.2   254     0.9   850.6    0.00 
 123    4:40   0.00   41.2    89    1.0   344     1.8   850.5    0.00 
 123    4:50   0.00   42.8    85    0.8   349     1.4   850.5    0.00 
 123    5:00   0.00   41.8    83    0.8   225     2.9   850.5    0.00 
 123    5:10   0.01   39.1    86    1.5   197     2.5   850.6    0.00 
 123    5:20   0.02   39.5    92    1.8   163     2.9   850.6    0.00 
 123    5:30   0.03   39.9    92    1.4   125     2.4   850.6    0.00 
 123    5:40   0.06   40.8    91    1.6    99     2.6   850.6    0.00 
 123    5:50   0.08   42.0    88    1.8   122     3.2   850.7    0.00 
 123    6:00   0.09   42.8    86    1.1   159     2.3   850.8    0.00 
 123    6:10   0.10   43.7    85    1.7   122     2.8   850.8    0.00 
 123    6:20   0.12   44.4    83    1.2   124     2.4   850.8    0.00 
 123    6:30   0.14   45.3    82    1.1   185     2.1   850.8    0.00 
 123    6:40   0.16   46.4    80    0.9   146     1.8   850.7    0.00 
 123    6:50   0.18   47.5    78    1.1    80     2.0   850.7    0.00 
 123    7:00   0.21   48.5    76    1.5    73     2.7   850.6    0.00 
 123    7:10   0.24   49.6    73    2.1    86     3.4   850.6    0.00 
 123    7:20   0.27   50.6    70    1.8    75     3.1   850.6    0.00 
 123    7:30   0.31   52.0    66    0.5   112     1.7   850.5    0.00 
 123    7:40   0.34   53.3    64    0.3   229     1.6   850.5    0.00 
 123    7:50   0.30   54.4    62    0.2   280     1.8   850.4    0.00 
 123    8:00   0.34   54.9    60    1.4   257     3.2   850.3    0.00 
 123    8:10   0.34   55.4    60    1.2   313     2.0   850.2    0.00 
 123    8:20   0.34   55.9    58    0.5   242     1.8   850.2    0.00 
 123    8:30   0.43   56.9    56    1.3   314     3.2   850.1    0.00 
 123    8:40   0.55   57.4    56    1.1   281     3.2   850.0    0.00 
 123    8:50   0.60   59.6    50    1.3     8     3.9   849.9    0.00 
 123    9:00   0.52   60.2    48    1.0   256     2.2   849.8    0.00 
 123    9:10   0.59   61.3    46    2.4   305     4.8   849.7    0.00 
 123    9:20   0.59   61.2    44    2.5   324     4.9   849.6    0.00 
 123    9:30   0.66   62.3    41    2.9   321     5.8   849.5    0.00 
 123    9:40   0.71   63.5    36    4.2     2     8.1   849.5    0.00 
 123    9:50   0.68   64.4    32    5.7     4    10.2   849.5    0.00 
 123   10:00   0.71   64.1    32    6.8   356    10.9   849.4    0.00 
 123   10:10   0.63   64.4    32    5.9     6    11.6   849.3    0.00 
 123   10:20   0.60   64.6    32    6.5   345    11.3   849.2    0.00 
 123   10:30   0.52   64.9    30    6.0   348    11.3   849.1    0.00 
 123   10:40   0.53   65.0    31    5.6   344    10.1   848.9    0.00 
 123   10:50   0.55   65.8    29    4.8     6     9.4   848.7    0.00 
 123   11:00   0.56   66.1    30    5.6   339    10.1   848.6    0.00 
 123   11:10   0.59   66.7    29    4.0   359     7.5   848.5    0.00 
 123   11:20   0.78   67.2    29    4.3   290     7.4   848.3    0.00 
 123   11:30   0.88   68.8    27    4.4   107    11.8   848.1    0.00 
 123   11:40   0.94   69.5    24    6.0    79    12.8   848.0    0.00 
 123   11:50   1.17   69.9    22    3.7    47    10.3   847.9    0.00 
 123   12:00   0.47   69.8    23    4.1    91     8.9   847.8    0.00 
 123   12:10   0.36   68.5    22    3.4   142     8.4   847.7    0.00 
 123   12:20   0.23   68.7    22    2.3   150     6.2   847.8    0.00 
 123   12:30   0.11   64.9    32   19.0   157    37.1   847.8    0.00 
 123   12:40   0.10   58.9    47   22.2   168    33.8   848.2    0.00 
 123   12:50   0.09   57.0    50   22.3   175    30.9   848.6    0.00 
 123   13:00   0.04   55.8    54   20.5   178    30.4   848.9    0.00 
 123   13:10   0.02   53.6    65   20.1   184    26.2   849.1    0.00 
 123   13:20   0.04   53.5    63   19.7   200    25.9   849.4    0.00 
 123   13:30   0.14   53.7    63   19.6   230    28.5   848.7    0.00 
 123   13:40   0.33   55.2    59   17.6   240    25.6   848.6    0.00 
 123   13:50   0.36   56.4    57   15.4   246    21.6   848.8    0.00 
 123   14:00   0.59   58.1    51   15.2   216    23.9   849.2    0.00 
 123   14:10   0.28   57.5    53   19.3   191    25.8   849.5    0.00 
 123   14:20   0.23   55.5    57   16.5   184    24.5   849.8    0.00 
 123   14:30   0.17   55.8    52   16.0   202    26.0   849.7    0.00 
 123   14:40   0.09   55.3    57   16.7   188    30.1   849.8    0.01 
 123   14:50   0.07   53.6    61    6.9   215    13.4   849.6    0.00 
 123   15:00   0.12   54.0    64    8.4   264    14.4   848.9    0.01 
 123   15:10   0.20   54.4    68   10.2   269    14.4   848.5    0.00 
 123   15:20   0.21   54.9    67    8.9   255    11.8   848.5    0.00 
 123   15:30   0.15   54.8    65   12.0   187    19.8   848.9    0.00 
 123   15:40   0.15   54.9    60   13.4   202    18.2   848.5    0.00 
 123   15:50   0.16   56.0    56   12.9   226    16.6   848.2    0.00 
 123   16:00   0.21   57.0    52   12.7   232    18.1   848.1    0.00 
 123   16:10   0.27   57.4    49   12.3   255    18.5   847.8    0.00 
 123   16:20   0.39   58.0    48   10.3   263    18.9   847.9    0.00 
 123   16:30   0.44   59.3    47    4.2   171    10.2   848.1    0.00 
 123   16:40   0.36   59.3    50    6.2   130    10.2   848.1    0.00 
 123   16:50   0.15   58.5    50    4.5   130     8.3   848.3    0.00 
 123   17:00   0.10   58.1    48    3.3   110     5.8   848.5    0.00 
 123   17:10   0.09   57.9    50    3.9   102     6.7   848.6    0.00 
 123   17:20   0.08   57.6    51    3.7   108     5.5   848.7    0.00 
 123   17:30   0.09   57.4    52    4.3   144     7.4   848.5    0.00 
 123   17:40   0.08   57.1    51    2.9   160     6.7   848.5    0.00 
 123   17:50   0.06   57.1    51    2.5    67     4.2   848.4    0.00 
 123   18:00   0.04   57.3    48    1.2    10     3.1   848.3    0.00 
 123   18:10   0.04   56.8    51    3.0   319     4.2   848.2    0.00 
 123   18:20   0.03   56.0    53    3.5   298     6.4   848.3    0.00 
 123   18:30   0.02   55.3    60    2.8   231     4.2   848.4    0.00 

Return to Smith Valley graphs page.


Western Regional Climate Center,wrcc@dri.edu